SAS5756 ENBR-EDDH
Flight info
| Callsign | SAS5756 |
|---|---|
| Flight time | 1h 14m |
| Altitude | 33000 |
| Route | TUXIL DCT ZOL DCT ATTUS DCT GIKOG DCT OSTOR/N0416F230 T904 RIBSO RIBSO3S |
| Aircraft | A320/M-SDE3FGHIRWY/LB1 |
Departure
| Time | 2026-04-23 17:41 |
|---|---|
| Airport | Bergen Airport, Flesland (ENBR) |
Arrival
| Time | 2026-04-23 18:55 |
|---|---|
| Airport | Hamburg Helmut Schmidt Airport (EDDH) |
| Time | Latitude | Longitude | Altitude | Speed | Heading |
|---|---|---|---|---|---|
| 2026-04-23 17:13 | 60.28815 | 5.22693 | 173 ft | 0 kts | 9° |
| 2026-04-23 17:31 | 60.28807 | 5.22690 | 173 ft | 4 kts | 11° |
| 2026-04-23 17:31 | 60.28781 | 5.22676 | 172 ft | 4 kts | 21° |
| 2026-04-23 17:32 | 60.28756 | 5.22654 | 171 ft | 4 kts | 31° |
| 2026-04-23 17:32 | 60.28734 | 5.22623 | 169 ft | 4 kts | 39° |
| 2026-04-23 17:32 | 60.28714 | 5.22588 | 168 ft | 3 kts | 35° |
| 2026-04-23 17:32 | 60.28710 | 5.22583 | 168 ft | 3 kts | 33° |
| 2026-04-23 17:36 | 60.28716 | 5.22582 | 168 ft | 1 kts | 354° |
| 2026-04-23 17:37 | 60.28730 | 5.22546 | 167 ft | 6 kts | 282° |
| 2026-04-23 17:37 | 60.28691 | 5.22446 | 165 ft | 12 kts | 234° |
| 2026-04-23 17:37 | 60.28521 | 5.22414 | 163 ft | 16 kts | 170° |
| 2026-04-23 17:38 | 60.28405 | 5.22454 | 162 ft | 19 kts | 170° |
| 2026-04-23 17:38 | 60.28281 | 5.22497 | 156 ft | 18 kts | 170° |
| 2026-04-23 17:38 | 60.28173 | 5.22533 | 151 ft | 14 kts | 171° |
| 2026-04-23 17:38 | 60.28102 | 5.22551 | 151 ft | 10 kts | 184° |
| 2026-04-23 17:39 | 60.28052 | 5.22452 | 151 ft | 12 kts | 255° |
| 2026-04-23 17:39 | 60.28047 | 5.22294 | 150 ft | 10 kts | 288° |
| 2026-04-23 17:39 | 60.28084 | 5.22241 | 150 ft | 0 kts | 345° |
| 2026-04-23 17:40 | 60.28086 | 5.22240 | 150 ft | 2 kts | 346° |
| 2026-04-23 17:40 | 60.28151 | 5.22215 | 150 ft | 17 kts | 350° |
| 2026-04-23 17:40 | 60.28470 | 5.22100 | 162 ft | 77 kts | 350° |
| 2026-04-23 17:40 | 60.29174 | 5.21863 | 161 ft | 126 kts | 351° |
| 2026-04-23 17:41 | 60.30144 | 5.21580 | 478 ft | 140 kts | 350° |
| 2026-04-23 17:41 | 60.32075 | 5.21005 | 1638 ft | 149 kts | 349° |
| 2026-04-23 17:41 | 60.33154 | 5.20619 | 1883 ft | 170 kts | 349° |
| 2026-04-23 17:42 | 60.35819 | 5.19678 | 2490 ft | 219 kts | 351° |
| 2026-04-23 17:42 | 60.37374 | 5.19141 | 3088 ft | 233 kts | 351° |
| 2026-04-23 17:42 | 60.38992 | 5.18587 | 3930 ft | 238 kts | 351° |
| 2026-04-23 17:43 | 60.40635 | 5.18020 | 4824 ft | 240 kts | 349° |
| 2026-04-23 17:43 | 60.42283 | 5.17452 | 5730 ft | 241 kts | 349° |
| 2026-04-23 17:43 | 60.43946 | 5.16884 | 6633 ft | 243 kts | 349° |
| 2026-04-23 17:43 | 60.45621 | 5.16316 | 7463 ft | 245 kts | 349° |
| 2026-04-23 17:44 | 60.47242 | 5.15244 | 8215 ft | 249 kts | 327° |
| 2026-04-23 17:44 | 60.48428 | 5.12649 | 8975 ft | 258 kts | 299° |
| 2026-04-23 17:44 | 60.48500 | 5.05198 | 10514 ft | 277 kts | 264° |
| 2026-04-23 17:45 | 60.47777 | 5.01509 | 11202 ft | 291 kts | 240° |
| 2026-04-23 17:45 | 60.44101 | 4.97426 | 12060 ft | 341 kts | 186° |
| 2026-04-23 17:45 | 60.41636 | 4.97549 | 12192 ft | 366 kts | 179° |
| 2026-04-23 17:46 | 60.36354 | 4.98784 | 12943 ft | 391 kts | 174° |
| 2026-04-23 17:46 | 60.33646 | 4.99547 | 13573 ft | 394 kts | 175° |
| 2026-04-23 17:46 | 60.30945 | 5.00266 | 14210 ft | 397 kts | 176° |
| 2026-04-23 17:47 | 60.28200 | 5.01084 | 14770 ft | 401 kts | 172° |
| 2026-04-23 17:47 | 60.25459 | 5.02231 | 15356 ft | 404 kts | 170° |
| 2026-04-23 17:47 | 60.19955 | 5.04824 | 16518 ft | 408 kts | 169° |
| 2026-04-23 17:48 | 60.17193 | 5.06166 | 17101 ft | 410 kts | 169° |
| 2026-04-23 17:48 | 60.14414 | 5.07504 | 17716 ft | 412 kts | 169° |
| 2026-04-23 17:48 | 60.11612 | 5.08834 | 18291 ft | 415 kts | 169° |
| 2026-04-23 17:48 | 60.08786 | 5.10150 | 18888 ft | 417 kts | 170° |
| 2026-04-23 17:49 | 60.05950 | 5.11451 | 19409 ft | 419 kts | 171° |
| 2026-04-23 17:49 | 60.03097 | 5.12749 | 19945 ft | 422 kts | 171° |
| 2026-04-23 17:49 | 60.00231 | 5.14052 | 20514 ft | 423 kts | 170° |
| 2026-04-23 17:49 | 59.97358 | 5.15366 | 21060 ft | 425 kts | 169° |
| 2026-04-23 17:50 | 59.94469 | 5.16688 | 21559 ft | 426 kts | 169° |
| 2026-04-23 17:50 | 59.88665 | 5.19337 | 22508 ft | 430 kts | 171° |
| 2026-04-23 17:50 | 59.85781 | 5.20648 | 22935 ft | 432 kts | 170° |
| 2026-04-23 17:51 | 59.82844 | 5.21973 | 23369 ft | 434 kts | 169° |
| 2026-04-23 17:51 | 59.79895 | 5.23304 | 23796 ft | 436 kts | 171° |
| 2026-04-23 17:51 | 59.73960 | 5.25993 | 24510 ft | 439 kts | 170° |
| 2026-04-23 17:52 | 59.70977 | 5.27341 | 24844 ft | 440 kts | 171° |
| 2026-04-23 17:52 | 59.64984 | 5.30043 | 25509 ft | 443 kts | 171° |
| 2026-04-23 17:52 | 59.61971 | 5.31398 | 25841 ft | 445 kts | 171° |
| 2026-04-23 17:53 | 59.55904 | 5.34103 | 26502 ft | 448 kts | 171° |
| 2026-04-23 17:53 | 59.52859 | 5.35452 | 26824 ft | 450 kts | 171° |
| 2026-04-23 17:53 | 59.49789 | 5.36812 | 27152 ft | 451 kts | 171° |
| 2026-04-23 17:54 | 59.46761 | 5.38155 | 27525 ft | 451 kts | 171° |
| 2026-04-23 17:54 | 59.43706 | 5.39511 | 28014 ft | 449 kts | 171° |
| 2026-04-23 17:54 | 59.37639 | 5.42212 | 28974 ft | 445 kts | 171° |
| 2026-04-23 17:55 | 59.31609 | 5.44891 | 29931 ft | 442 kts | 171° |
| 2026-04-23 17:55 | 59.28611 | 5.46206 | 30413 ft | 441 kts | 171° |
| 2026-04-23 17:55 | 59.25620 | 5.47512 | 30817 ft | 440 kts | 171° |
| 2026-04-23 17:56 | 59.22636 | 5.48813 | 31212 ft | 438 kts | 171° |
| 2026-04-23 17:56 | 59.16694 | 5.51400 | 31969 ft | 437 kts | 171° |
| 2026-04-23 17:56 | 59.13729 | 5.52689 | 32357 ft | 436 kts | 171° |
| 2026-04-23 17:57 | 59.10768 | 5.53973 | 32768 ft | 435 kts | 172° |
| 2026-04-23 17:57 | 59.07814 | 5.55254 | 33177 ft | 434 kts | 172° |
| 2026-04-23 17:57 | 59.01885 | 5.57822 | 33379 ft | 443 kts | 172° |
| 2026-04-23 17:58 | 58.98866 | 5.59124 | 33379 ft | 447 kts | 172° |
| 2026-04-23 17:58 | 58.92771 | 5.61750 | 33369 ft | 449 kts | 172° |
| 2026-04-23 17:59 | 58.86710 | 5.64795 | 33384 ft | 454 kts | 163° |
| 2026-04-23 17:59 | 58.80932 | 5.69836 | 33384 ft | 456 kts | 159° |
| 2026-04-23 18:00 | 58.75170 | 5.74939 | 33379 ft | 456 kts | 159° |
| 2026-04-23 18:00 | 58.69438 | 5.79992 | 33372 ft | 456 kts | 160° |
| 2026-04-23 18:01 | 58.63658 | 5.85067 | 33351 ft | 456 kts | 159° |
| 2026-04-23 18:01 | 58.57841 | 5.90151 | 33349 ft | 457 kts | 160° |
| 2026-04-23 18:02 | 58.53033 | 5.94332 | 33340 ft | 457 kts | 159° |
| 2026-04-23 18:02 | 58.46306 | 6.00175 | 33338 ft | 456 kts | 159° |
| 2026-04-23 18:03 | 58.40517 | 6.05170 | 33331 ft | 456 kts | 160° |
| 2026-04-23 18:03 | 58.34728 | 6.10155 | 33331 ft | 456 kts | 160° |
| 2026-04-23 18:04 | 58.28945 | 6.15130 | 33321 ft | 456 kts | 161° |
| 2026-04-23 18:04 | 58.23157 | 6.20089 | 33282 ft | 457 kts | 160° |
| 2026-04-23 18:05 | 58.18331 | 6.24189 | 33297 ft | 457 kts | 160° |
| 2026-04-23 18:05 | 58.12527 | 6.29126 | 33301 ft | 457 kts | 159° |
| 2026-04-23 18:06 | 58.06720 | 6.34056 | 33303 ft | 458 kts | 159° |
| 2026-04-23 18:06 | 58.00909 | 6.38959 | 33269 ft | 457 kts | 160° |
| 2026-04-23 18:07 | 57.95100 | 6.43839 | 33280 ft | 457 kts | 160° |
| 2026-04-23 18:07 | 57.89274 | 6.48719 | 33284 ft | 457 kts | 161° |
| 2026-04-23 18:08 | 57.83470 | 6.53552 | 33293 ft | 457 kts | 160° |
| 2026-04-23 18:08 | 57.77655 | 6.58387 | 33269 ft | 457 kts | 161° |
| 2026-04-23 18:09 | 57.71835 | 6.63211 | 33267 ft | 457 kts | 161° |
| 2026-04-23 18:09 | 57.66050 | 6.67987 | 33256 ft | 458 kts | 162° |
| 2026-04-23 18:10 | 57.60205 | 6.72796 | 33254 ft | 460 kts | 160° |
| 2026-04-23 18:10 | 57.54346 | 6.77611 | 33239 ft | 461 kts | 162° |
| 2026-04-23 18:11 | 57.48461 | 6.82427 | 33249 ft | 462 kts | 160° |
| 2026-04-23 18:11 | 57.42578 | 6.87209 | 33258 ft | 461 kts | 160° |
| 2026-04-23 18:12 | 57.36692 | 6.91985 | 33269 ft | 461 kts | 161° |
| 2026-04-23 18:12 | 57.30816 | 6.96741 | 33251 ft | 461 kts | 161° |
| 2026-04-23 18:13 | 57.24967 | 7.01456 | 33254 ft | 461 kts | 160° |
| 2026-04-23 18:13 | 57.19079 | 7.06176 | 33260 ft | 461 kts | 162° |
| 2026-04-23 18:14 | 57.13179 | 7.10883 | 33263 ft | 461 kts | 161° |
| 2026-04-23 18:14 | 57.07300 | 7.15574 | 33105 ft | 454 kts | 160° |
| 2026-04-23 18:14 | 57.04435 | 7.17872 | 32975 ft | 447 kts | 161° |
| 2026-04-23 18:15 | 57.01596 | 7.20141 | 32844 ft | 444 kts | 162° |
| 2026-04-23 18:15 | 56.98752 | 7.22400 | 32710 ft | 445 kts | 162° |
| 2026-04-23 18:15 | 56.95898 | 7.24653 | 32583 ft | 446 kts | 160° |
| 2026-04-23 18:15 | 56.93055 | 7.26891 | 32461 ft | 445 kts | 160° |
| 2026-04-23 18:16 | 56.90204 | 7.29134 | 32319 ft | 446 kts | 160° |
| 2026-04-23 18:16 | 56.87358 | 7.31373 | 32180 ft | 444 kts | 160° |
| 2026-04-23 18:16 | 56.84559 | 7.33573 | 32054 ft | 443 kts | 160° |
| 2026-04-23 18:17 | 56.78896 | 7.38011 | 31802 ft | 445 kts | 162° |
| 2026-04-23 18:17 | 56.76049 | 7.40241 | 31682 ft | 446 kts | 162° |
| 2026-04-23 18:17 | 56.73191 | 7.42473 | 31556 ft | 446 kts | 160° |
| 2026-04-23 18:17 | 56.70338 | 7.44690 | 31440 ft | 446 kts | 159° |
| 2026-04-23 18:18 | 56.67486 | 7.46907 | 31302 ft | 446 kts | 161° |
| 2026-04-23 18:18 | 56.64631 | 7.49129 | 31180 ft | 447 kts | 162° |
| 2026-04-23 18:18 | 56.61765 | 7.51359 | 31059 ft | 448 kts | 162° |
| 2026-04-23 18:18 | 56.58896 | 7.53584 | 30936 ft | 448 kts | 161° |
| 2026-04-23 18:19 | 56.56024 | 7.55806 | 30814 ft | 450 kts | 161° |
| 2026-04-23 18:19 | 56.53138 | 7.58032 | 30700 ft | 451 kts | 161° |
| 2026-04-23 18:19 | 56.47365 | 7.62472 | 30512 ft | 450 kts | 159° |
| 2026-04-23 18:20 | 56.44479 | 7.64682 | 30407 ft | 450 kts | 161° |
| 2026-04-23 18:20 | 56.41585 | 7.66897 | 30309 ft | 452 kts | 160° |
| 2026-04-23 18:20 | 56.38683 | 7.69117 | 30204 ft | 453 kts | 159° |
| 2026-04-23 18:20 | 56.35790 | 7.71331 | 30091 ft | 450 kts | 159° |
| 2026-04-23 18:21 | 56.32905 | 7.73540 | 29968 ft | 450 kts | 159° |
| 2026-04-23 18:21 | 56.30024 | 7.75742 | 29858 ft | 450 kts | 160° |
| 2026-04-23 18:21 | 56.27135 | 7.77940 | 29755 ft | 451 kts | 159° |
| 2026-04-23 18:21 | 56.24243 | 7.80130 | 29640 ft | 450 kts | 159° |
| 2026-04-23 18:22 | 56.21357 | 7.82318 | 29526 ft | 452 kts | 160° |
| 2026-04-23 18:22 | 56.18461 | 7.84514 | 29420 ft | 453 kts | 160° |
| 2026-04-23 18:22 | 56.15551 | 7.86712 | 29311 ft | 452 kts | 159° |
| 2026-04-23 18:22 | 56.12651 | 7.88895 | 29200 ft | 451 kts | 159° |
| 2026-04-23 18:23 | 56.03960 | 7.95435 | 28816 ft | 455 kts | 160° |
| 2026-04-23 18:24 | 55.98074 | 7.99839 | 28029 ft | 463 kts | 159° |
| 2026-04-23 18:24 | 55.95107 | 8.02051 | 27510 ft | 461 kts | 159° |
| 2026-04-23 18:24 | 55.92144 | 8.04260 | 27000 ft | 461 kts | 158° |
| 2026-04-23 18:25 | 55.86180 | 8.08698 | 26004 ft | 468 kts | 158° |
| 2026-04-23 18:25 | 55.83169 | 8.10936 | 25523 ft | 470 kts | 158° |
| 2026-04-23 18:25 | 55.80158 | 8.13170 | 25039 ft | 468 kts | 158° |
| 2026-04-23 18:25 | 55.77155 | 8.15393 | 24571 ft | 467 kts | 158° |
| 2026-04-23 18:26 | 55.74144 | 8.17610 | 24102 ft | 469 kts | 158° |
| 2026-04-23 18:26 | 55.71106 | 8.19843 | 23606 ft | 475 kts | 158° |
| 2026-04-23 18:26 | 55.68053 | 8.22086 | 23267 ft | 477 kts | 158° |
| 2026-04-23 18:26 | 55.64977 | 8.24345 | 23258 ft | 481 kts | 158° |
| 2026-04-23 18:27 | 55.61893 | 8.26607 | 23259 ft | 478 kts | 158° |
| 2026-04-23 18:27 | 55.58824 | 8.28859 | 23257 ft | 478 kts | 158° |
| 2026-04-23 18:27 | 55.55731 | 8.31118 | 23258 ft | 483 kts | 158° |
| 2026-04-23 18:27 | 55.52666 | 8.33350 | 23259 ft | 480 kts | 158° |
| 2026-04-23 18:28 | 55.49586 | 8.35586 | 23249 ft | 479 kts | 158° |
| 2026-04-23 18:28 | 55.46494 | 8.37831 | 23264 ft | 482 kts | 158° |
| 2026-04-23 18:28 | 55.43392 | 8.40087 | 23260 ft | 479 kts | 158° |
| 2026-04-23 18:28 | 55.40316 | 8.42321 | 23260 ft | 478 kts | 158° |
| 2026-04-23 18:29 | 55.37233 | 8.44553 | 23250 ft | 480 kts | 158° |
| 2026-04-23 18:29 | 55.34144 | 8.46786 | 23250 ft | 479 kts | 158° |
| 2026-04-23 18:29 | 55.31060 | 8.49013 | 23250 ft | 479 kts | 158° |
| 2026-04-23 18:29 | 55.27983 | 8.51230 | 23252 ft | 477 kts | 158° |
| 2026-04-23 18:30 | 55.24916 | 8.53436 | 23253 ft | 476 kts | 158° |
| 2026-04-23 18:30 | 55.21846 | 8.55644 | 23254 ft | 477 kts | 159° |
| 2026-04-23 18:30 | 55.18764 | 8.57850 | 23262 ft | 480 kts | 159° |
| 2026-04-23 18:30 | 55.15659 | 8.60065 | 23257 ft | 481 kts | 159° |
| 2026-04-23 18:31 | 55.12561 | 8.62272 | 23256 ft | 478 kts | 159° |
| 2026-04-23 18:31 | 55.09471 | 8.64473 | 23257 ft | 478 kts | 159° |
| 2026-04-23 18:31 | 55.06382 | 8.66666 | 23255 ft | 482 kts | 159° |
| 2026-04-23 18:31 | 55.03305 | 8.68849 | 23261 ft | 484 kts | 159° |
| 2026-04-23 18:32 | 55.00186 | 8.71062 | 23261 ft | 484 kts | 159° |
| 2026-04-23 18:32 | 54.97067 | 8.73254 | 23259 ft | 481 kts | 160° |
| 2026-04-23 18:32 | 54.93915 | 8.75246 | 23261 ft | 479 kts | 162° |
| 2026-04-23 18:32 | 54.90743 | 8.77008 | 23253 ft | 478 kts | 164° |
| 2026-04-23 18:33 | 54.87548 | 8.78633 | 23256 ft | 478 kts | 165° |
| 2026-04-23 18:33 | 54.84346 | 8.80210 | 23254 ft | 477 kts | 165° |
| 2026-04-23 18:33 | 54.81154 | 8.81795 | 23264 ft | 476 kts | 165° |
| 2026-04-23 18:33 | 54.78012 | 8.83402 | 23263 ft | 478 kts | 165° |
| 2026-04-23 18:34 | 54.74848 | 8.85069 | 22902 ft | 470 kts | 163° |
| 2026-04-23 18:34 | 54.71751 | 8.86738 | 22386 ft | 461 kts | 163° |
| 2026-04-23 18:34 | 54.68712 | 8.88390 | 21860 ft | 457 kts | 163° |
| 2026-04-23 18:34 | 54.65682 | 8.90029 | 21344 ft | 456 kts | 163° |
| 2026-04-23 18:35 | 54.62668 | 8.91646 | 20850 ft | 451 kts | 163° |
| 2026-04-23 18:35 | 54.59695 | 8.93232 | 20356 ft | 446 kts | 163° |
| 2026-04-23 18:35 | 54.56731 | 8.94806 | 19873 ft | 445 kts | 163° |
| 2026-04-23 18:35 | 54.53778 | 8.96369 | 19401 ft | 441 kts | 162° |
| 2026-04-23 18:36 | 54.50864 | 8.97907 | 18940 ft | 436 kts | 162° |
| 2026-04-23 18:36 | 54.47964 | 8.99433 | 18464 ft | 435 kts | 162° |
| 2026-04-23 18:36 | 54.45080 | 9.00951 | 17934 ft | 432 kts | 162° |
| 2026-04-23 18:36 | 54.42213 | 9.02460 | 17401 ft | 428 kts | 162° |
| 2026-04-23 18:37 | 54.39384 | 9.03948 | 16888 ft | 423 kts | 162° |
| 2026-04-23 18:37 | 54.36577 | 9.05425 | 16389 ft | 419 kts | 162° |
| 2026-04-23 18:37 | 54.33805 | 9.06879 | 15889 ft | 414 kts | 162° |
| 2026-04-23 18:37 | 54.31064 | 9.08312 | 15417 ft | 409 kts | 162° |
| 2026-04-23 18:38 | 54.28354 | 9.09730 | 14937 ft | 404 kts | 162° |
| 2026-04-23 18:38 | 54.25711 | 9.11110 | 14471 ft | 399 kts | 162° |
| 2026-04-23 18:38 | 54.23070 | 9.12484 | 13999 ft | 395 kts | 162° |
| 2026-04-23 18:38 | 54.20458 | 9.13843 | 13468 ft | 390 kts | 162° |
| 2026-04-23 18:39 | 54.17873 | 9.15182 | 12950 ft | 387 kts | 163° |
| 2026-04-23 18:39 | 54.15307 | 9.16508 | 12441 ft | 383 kts | 163° |
| 2026-04-23 18:39 | 54.12769 | 9.17819 | 11933 ft | 379 kts | 163° |
| 2026-04-23 18:39 | 54.10279 | 9.19109 | 11448 ft | 366 kts | 163° |
| 2026-04-23 18:40 | 54.07891 | 9.20351 | 11261 ft | 357 kts | 163° |
| 2026-04-23 18:40 | 54.05523 | 9.21582 | 11263 ft | 357 kts | 163° |
| 2026-04-23 18:40 | 54.03142 | 9.22812 | 11265 ft | 357 kts | 163° |
| 2026-04-23 18:40 | 54.00764 | 9.24036 | 11267 ft | 357 kts | 163° |
| 2026-04-23 18:41 | 53.98427 | 9.25474 | 11172 ft | 360 kts | 152° |
| 2026-04-23 18:41 | 53.96443 | 9.27987 | 10755 ft | 354 kts | 130° |
| 2026-04-23 18:41 | 53.95099 | 9.31406 | 10369 ft | 344 kts | 110° |
| 2026-04-23 18:41 | 53.94385 | 9.35222 | 10251 ft | 339 kts | 102° |
| 2026-04-23 18:42 | 53.93742 | 9.39069 | 10258 ft | 333 kts | 102° |
| 2026-04-23 18:42 | 53.93123 | 9.42687 | 10263 ft | 311 kts | 102° |
| 2026-04-23 18:42 | 53.92523 | 9.46183 | 10266 ft | 307 kts | 102° |
| 2026-04-23 18:42 | 53.91930 | 9.49651 | 10271 ft | 306 kts | 102° |
| 2026-04-23 18:43 | 53.91334 | 9.53125 | 10262 ft | 306 kts | 102° |
| 2026-04-23 18:43 | 53.90740 | 9.56592 | 10261 ft | 306 kts | 102° |
| 2026-04-23 18:43 | 53.90146 | 9.60065 | 10261 ft | 307 kts | 102° |
| 2026-04-23 18:43 | 53.89557 | 9.63496 | 10260 ft | 306 kts | 102° |
| 2026-04-23 18:44 | 53.88958 | 9.66967 | 10259 ft | 306 kts | 102° |
| 2026-04-23 18:44 | 53.88360 | 9.70426 | 10258 ft | 307 kts | 102° |
| 2026-04-23 18:44 | 53.87760 | 9.73896 | 10257 ft | 307 kts | 102° |
| 2026-04-23 18:44 | 53.87162 | 9.77364 | 10256 ft | 307 kts | 102° |
| 2026-04-23 18:45 | 53.86681 | 9.80858 | 10254 ft | 303 kts | 92° |
| 2026-04-23 18:45 | 53.86435 | 9.84404 | 10178 ft | 304 kts | 92° |
| 2026-04-23 18:45 | 53.86184 | 9.87972 | 9699 ft | 305 kts | 92° |
| 2026-04-23 18:45 | 53.85932 | 9.91502 | 9176 ft | 299 kts | 92° |
| 2026-04-23 18:46 | 53.85683 | 9.94981 | 8656 ft | 296 kts | 92° |
| 2026-04-23 18:46 | 53.85436 | 9.98427 | 8162 ft | 294 kts | 92° |
| 2026-04-23 18:46 | 53.85193 | 10.01849 | 7664 ft | 292 kts | 92° |
| 2026-04-23 18:46 | 53.84948 | 10.05255 | 7174 ft | 290 kts | 91° |
| 2026-04-23 18:47 | 53.84703 | 10.08638 | 6697 ft | 291 kts | 91° |
| 2026-04-23 18:47 | 53.84459 | 10.12081 | 6181 ft | 297 kts | 91° |
| 2026-04-23 18:47 | 53.84252 | 10.15560 | 5666 ft | 293 kts | 84° |
| 2026-04-23 18:47 | 53.84499 | 10.18841 | 5170 ft | 278 kts | 67° |
| 2026-04-23 18:48 | 53.85245 | 10.21751 | 4663 ft | 263 kts | 51° |
| 2026-04-23 18:48 | 53.86336 | 10.24141 | 4294 ft | 253 kts | 46° |
| 2026-04-23 18:48 | 53.87147 | 10.26849 | 4003 ft | 265 kts | 73° |
| 2026-04-23 18:48 | 53.87063 | 10.30001 | 3981 ft | 278 kts | 103° |
| 2026-04-23 18:49 | 53.86089 | 10.32875 | 3972 ft | 289 kts | 132° |
| 2026-04-23 18:49 | 53.84515 | 10.35053 | 3972 ft | 292 kts | 143° |
| 2026-04-23 18:49 | 53.82845 | 10.37022 | 3965 ft | 293 kts | 146° |
| 2026-04-23 18:49 | 53.80992 | 10.38290 | 3957 ft | 283 kts | 178° |
| 2026-04-23 18:50 | 53.80340 | 10.38307 | 3957 ft | 271 kts | 190° |
| 2026-04-23 18:50 | 53.78104 | 10.35698 | 3967 ft | 229 kts | 258° |
| 2026-04-23 18:50 | 53.77859 | 10.33123 | 3983 ft | 221 kts | 273° |
| 2026-04-23 18:50 | 53.77662 | 10.30530 | 3989 ft | 223 kts | 268° |
| 2026-04-23 18:51 | 53.77171 | 10.27993 | 3988 ft | 233 kts | 248° |
| 2026-04-23 18:51 | 53.76245 | 10.25704 | 3913 ft | 239 kts | 238° |
| 2026-04-23 18:51 | 53.75188 | 10.23543 | 3645 ft | 238 kts | 236° |
| 2026-04-23 18:51 | 53.74129 | 10.21405 | 3336 ft | 237 kts | 237° |
| 2026-04-23 18:52 | 53.73093 | 10.19293 | 3012 ft | 235 kts | 237° |
| 2026-04-23 18:52 | 53.72398 | 10.17876 | 2813 ft | 229 kts | 238° |
| 2026-04-23 18:52 | 53.71404 | 10.15849 | 2503 ft | 220 kts | 238° |
| 2026-04-23 18:52 | 53.70450 | 10.13908 | 2234 ft | 209 kts | 239° |
| 2026-04-23 18:53 | 53.69546 | 10.12066 | 1934 ft | 199 kts | 239° |
| 2026-04-23 18:53 | 53.68699 | 10.10344 | 1663 ft | 184 kts | 239° |
| 2026-04-23 18:53 | 53.67899 | 10.08711 | 1441 ft | 176 kts | 238° |
| 2026-04-23 18:53 | 53.67147 | 10.07185 | 1186 ft | 158 kts | 237° |
| 2026-04-23 18:54 | 53.66483 | 10.05838 | 973 ft | 143 kts | 239° |
| 2026-04-23 18:54 | 53.65862 | 10.04571 | 781 ft | 137 kts | 237° |
| 2026-04-23 18:54 | 53.65263 | 10.03349 | 598 ft | 135 kts | 236° |
| 2026-04-23 18:54 | 53.64672 | 10.02146 | 433 ft | 130 kts | 235° |
| 2026-04-23 18:55 | 53.64081 | 10.00981 | 248 ft | 133 kts | 233° |
| 2026-04-23 18:55 | 53.63507 | 9.99796 | 95 ft | 130 kts | 237° |
| 2026-04-23 18:55 | 53.62980 | 9.98697 | 51 ft | 92 kts | 230° |
| 2026-04-23 18:55 | 53.62733 | 9.98200 | 53 ft | 40 kts | 230° |
| 2026-04-23 18:56 | 53.62588 | 9.97911 | 52 ft | 25 kts | 228° |
| 2026-04-23 18:56 | 53.62465 | 9.97801 | 49 ft | 21 kts | 158° |
| 2026-04-23 18:56 | 53.62429 | 9.97941 | 51 ft | 8 kts | 81° |
| 2026-04-23 18:56 | 53.62431 | 9.97963 | 51 ft | 0 kts | 81° |
| 2026-04-23 18:57 | 53.62431 | 9.97966 | 51 ft | 1 kts | 81° |
| 2026-04-23 18:57 | 53.62437 | 9.98002 | 48 ft | 5 kts | 73° |
| 2026-04-23 18:57 | 53.62454 | 9.98071 | 50 ft | 8 kts | 63° |
| 2026-04-23 18:58 | 53.62491 | 9.98160 | 51 ft | 11 kts | 50° |
| 2026-04-23 18:58 | 53.62545 | 9.98262 | 51 ft | 13 kts | 49° |
| 2026-04-23 18:58 | 53.62607 | 9.98388 | 51 ft | 15 kts | 50° |
| 2026-04-23 18:58 | 53.62681 | 9.98537 | 51 ft | 18 kts | 50° |
| 2026-04-23 18:59 | 53.62766 | 9.98706 | 51 ft | 18 kts | 51° |
| 2026-04-23 18:59 | 53.62853 | 9.98885 | 51 ft | 21 kts | 50° |
| 2026-04-23 18:59 | 53.62943 | 9.99065 | 51 ft | 17 kts | 50° |
| 2026-04-23 18:59 | 53.63022 | 9.99225 | 51 ft | 19 kts | 52° |
| 2026-04-23 19:00 | 53.63075 | 9.99349 | 51 ft | 0 kts | 54° |
| 2026-04-23 19:00 | 53.63076 | 9.99352 | 51 ft | 1 kts | 54° |
| 2026-04-23 19:01 | 53.63088 | 9.99379 | 49 ft | 4 kts | 54° |
| 2026-04-23 19:01 | 53.63109 | 9.99429 | 52 ft | 6 kts | 53° |
| 2026-04-23 19:01 | 53.63139 | 9.99497 | 52 ft | 9 kts | 53° |
| 2026-04-23 19:01 | 53.63186 | 9.99598 | 51 ft | 13 kts | 51° |
| 2026-04-23 19:02 | 53.63224 | 9.99697 | 51 ft | 10 kts | 78° |
| 2026-04-23 19:02 | 53.63185 | 9.99791 | 51 ft | 12 kts | 150° |
| 2026-04-23 19:02 | 53.63148 | 9.99830 | 51 ft | 1 kts | 137° |
| 2026-04-23 19:02 | 53.63139 | 9.99860 | 50 ft | 5 kts | 98° |
| 2026-04-23 19:03 | 53.63161 | 9.99941 | 48 ft | 7 kts | 52° |
| 2026-04-23 19:03 | 53.63171 | 10.00007 | 51 ft | 7 kts | 101° |
| 2026-04-23 19:03 | 53.63161 | 10.00021 | 51 ft | 1 kts | 145° |
| 2026-04-23 19:03 | 53.63139 | 10.00052 | 50 ft | 8 kts | 141° |
| 2026-04-23 19:04 | 53.63135 | 10.00056 | 51 ft | 0 kts | 141° |